createdAt,value
2022-12-12T00:00:53.098Z,98.43
2022-12-12T00:01:53.109Z,98.21
2022-12-12T00:02:53.255Z,97.79
2022-12-12T00:03:53.361Z,98.11
2022-12-12T00:04:53.174Z,98.21
2022-12-12T00:05:53.167Z,98.21
2022-12-12T00:06:53.186Z,97.79
2022-12-12T00:07:53.272Z,97.41
2022-12-12T00:08:53.224Z,97.41
2022-12-12T00:09:53.256Z,98.15
2022-12-12T00:10:53.255Z,98.63
2022-12-12T00:11:53.268Z,98.74
2022-12-12T00:12:53.287Z,98.74
2022-12-12T00:13:53.299Z,98.53
2022-12-12T00:14:53.340Z,98.11
2022-12-12T00:15:53.349Z,97.79
2022-12-12T00:16:53.354Z,97.79
2022-12-12T00:17:53.365Z,98.21
2022-12-12T00:18:53.384Z,98.53
2022-12-12T00:19:53.415Z,98.53
2022-12-12T00:20:53.413Z,98.32
2022-12-12T00:21:53.426Z,97.89
2022-12-12T00:22:53.444Z,97.47
2022-12-12T00:23:53.460Z,97.83
2022-12-12T00:24:53.492Z,98.05
2022-12-12T00:25:53.485Z,97.83
2022-12-12T00:26:53.507Z,97.63
2022-12-12T00:27:53.521Z,97.63
2022-12-12T00:28:53.539Z,97.56
2022-12-12T00:29:53.569Z,97.81
2022-12-12T00:30:53.584Z,98.13
2022-12-12T00:31:53.583Z,98.55
2022-12-12T00:32:53.602Z,98.45
2022-12-12T00:33:53.609Z,98.49
2022-12-12T00:34:53.647Z,98.92
2022-12-12T00:35:53.643Z,99.13
2022-12-12T00:36:53.663Z,99.44
2022-12-12T00:37:53.678Z,99.44
2022-12-12T00:38:53.698Z,99.76
2022-12-12T00:39:53.732Z,99.99
2022-12-12T00:40:53.733Z,99.99
2022-12-12T00:41:53.743Z,99.72
2022-12-12T00:42:53.764Z,99.61
2022-12-12T00:43:53.776Z,99.66
2022-12-12T00:44:53.813Z,99.82
2022-12-12T00:45:53.809Z,99.82
2022-12-12T00:46:53.880Z,99.99
2022-12-12T00:47:53.843Z,99.99
2022-12-12T00:48:53.862Z,99.99
2022-12-12T00:49:53.895Z,99.88
2022-12-12T00:50:53.902Z,99.35
2022-12-12T00:51:53.910Z,99.04
2022-12-12T00:52:53.932Z,98.51
2022-12-12T00:53:53.956Z,98.24
2022-12-12T00:54:53.988Z,98.35
2022-12-12T00:55:53.970Z,98.45
2022-12-12T00:56:53.991Z,98.55
2022-12-12T00:57:54.003Z,98.55
2022-12-12T00:58:54.031Z,98.66
2022-12-12T00:59:54.057Z,98.87
2022-12-12T01:00:54.059Z,99.30
2022-12-12T01:01:54.140Z,99.99
2022-12-12T01:02:54.127Z,99.93
2022-12-12T01:03:54.094Z,99.61
2022-12-12T01:04:54.139Z,99.30
2022-12-12T01:05:54.123Z,99.13
2022-12-12T01:06:54.143Z,99.13
2022-12-12T01:07:54.195Z,99.44
2022-12-12T01:08:54.176Z,99.55
2022-12-12T01:09:54.213Z,99.44
2022-12-12T01:10:54.212Z,99.55
2022-12-12T01:11:54.225Z,99.55
2022-12-12T01:12:54.245Z,99.66
2022-12-12T01:13:54.268Z,99.66
2022-12-12T01:14:54.299Z,99.66
2022-12-12T01:15:54.337Z,99.87
2022-12-12T01:16:54.309Z,99.98
2022-12-12T01:17:54.320Z,99.87
2022-12-12T01:18:54.338Z,99.87
2022-12-12T01:19:54.372Z,99.99
2022-12-12T01:20:54.373Z,99.99
2022-12-12T01:21:54.389Z,99.99
2022-12-12T01:22:54.406Z,99.55
2022-12-12T01:23:54.418Z,99.72
2022-12-12T01:24:54.457Z,99.55
2022-12-12T01:25:54.452Z,99.66
2022-12-12T01:26:54.470Z,99.99
2022-12-12T01:27:54.484Z,99.99
2022-12-12T01:28:54.503Z,99.99
2022-12-12T01:29:54.544Z,99.99
2022-12-12T01:30:54.574Z,99.82
2022-12-12T01:31:54.562Z,99.99
2022-12-12T01:32:54.567Z,99.78
2022-12-12T01:33:54.580Z,98.83
2022-12-12T01:34:54.628Z,98.35
2022-12-12T01:35:54.615Z,98.35
2022-12-12T01:36:54.633Z,98.45
2022-12-12T01:37:54.647Z,98.77
2022-12-12T01:38:54.664Z,98.77
2022-12-12T01:39:54.695Z,98.55
2022-12-12T01:40:54.694Z,98.81
2022-12-12T01:41:54.707Z,99.13
2022-12-12T01:42:54.727Z,99.34
2022-12-12T01:43:54.739Z,99.44
2022-12-12T01:44:54.790Z,99.66
2022-12-12T01:45:54.772Z,99.76
2022-12-12T01:46:54.822Z,99.98
2022-12-12T01:47:54.804Z,99.99
2022-12-12T01:48:54.826Z,99.99
2022-12-12T01:49:54.863Z,99.99
2022-12-12T01:50:54.854Z,99.99
2022-12-12T01:51:54.866Z,99.99
2022-12-12T01:52:54.889Z,99.99
2022-12-12T01:53:54.892Z,99.99
2022-12-12T01:54:54.937Z,99.99
2022-12-12T01:55:54.919Z,99.99
2022-12-12T01:56:54.939Z,99.99
2022-12-12T01:57:54.953Z,99.99
2022-12-12T01:58:54.973Z,99.99
2022-12-12T01:59:55.011Z,99.99
2022-12-12T02:00:55.075Z,99.88
2022-12-12T02:01:55.064Z,99.46
2022-12-12T02:02:55.024Z,99.04
2022-12-12T02:03:55.040Z,98.61
2022-12-12T02:04:55.090Z,98.19
2022-12-12T02:05:55.068Z,98.19
2022-12-12T02:06:55.090Z,97.77
2022-12-12T02:07:55.153Z,97.45
2022-12-12T02:08:55.119Z,97.99
2022-12-12T02:09:55.156Z,98.09
2022-12-12T02:10:55.154Z,98.19
2022-12-12T02:11:55.170Z,98.51
2022-12-12T02:12:55.187Z,98.35
2022-12-12T02:13:55.207Z,98.35
2022-12-12T02:14:55.243Z,98.55
2022-12-12T02:15:55.291Z,99.08
2022-12-12T02:16:55.243Z,99.40
2022-12-12T02:17:55.255Z,99.51
2022-12-12T02:18:55.275Z,99.51
2022-12-12T02:19:55.314Z,99.93
2022-12-12T02:20:55.304Z,99.99
2022-12-12T02:21:55.317Z,99.72
2022-12-12T02:22:55.339Z,99.46
2022-12-12T02:23:55.350Z,99.15
2022-12-12T02:24:55.386Z,99.08
2022-12-12T02:25:55.378Z,99.08
2022-12-12T02:26:55.398Z,98.98
2022-12-12T02:27:55.407Z,99.08
2022-12-12T02:28:55.423Z,98.98
2022-12-12T02:29:55.457Z,99.08
2022-12-12T02:30:55.459Z,99.61
2022-12-12T02:31:55.512Z,99.99
2022-12-12T02:32:55.490Z,99.99
2022-12-12T02:33:55.500Z,99.88
2022-12-12T02:34:55.551Z,99.57
2022-12-12T02:35:55.549Z,99.25
2022-12-12T02:36:55.564Z,98.93
2022-12-12T02:37:55.577Z,98.61
2022-12-12T02:38:55.594Z,98.66
2022-12-12T02:39:55.630Z,98.77
2022-12-12T02:40:55.628Z,98.87
2022-12-12T02:41:55.636Z,98.92
2022-12-12T02:42:55.660Z,99.24
2022-12-12T02:43:55.672Z,99.55
2022-12-12T02:44:55.718Z,99.66
2022-12-12T02:45:55.700Z,99.76
2022-12-12T02:46:55.764Z,99.93
2022-12-12T02:47:55.725Z,99.99
2022-12-12T02:48:55.742Z,99.99
2022-12-12T02:49:55.788Z,99.99
2022-12-12T02:50:55.768Z,99.88
2022-12-12T02:51:55.784Z,99.46
2022-12-12T02:52:55.795Z,98.99
2022-12-12T02:53:55.823Z,98.57
2022-12-12T02:54:55.863Z,98.57
2022-12-12T02:55:55.850Z,98.99
2022-12-12T02:57:01.864Z,98.68
2022-12-12T02:57:55.890Z,98.47
2022-12-12T02:58:55.900Z,98.36
2022-12-12T02:59:55.940Z,97.79
2022-12-12T03:00:55.974Z,97.63
2022-12-12T03:01:55.999Z,97.41
2022-12-12T03:02:55.965Z,97.20
2022-12-12T03:03:55.983Z,97.73
2022-12-12T03:04:56.041Z,97.73
2022-12-12T03:05:56.038Z,97.52
2022-12-12T03:06:56.021Z,97.83
2022-12-12T03:07:56.075Z,98.05
2022-12-12T03:08:56.044Z,97.94
2022-12-12T03:09:56.102Z,97.73
2022-12-12T03:10:56.088Z,97.63
2022-12-12T03:11:56.092Z,97.73
2022-12-12T03:12:56.106Z,97.63
2022-12-12T03:13:56.129Z,97.41
2022-12-12T03:14:56.151Z,97.63
2022-12-12T03:15:56.189Z,97.94
2022-12-12T03:16:56.167Z,97.94
2022-12-12T03:17:56.185Z,98.05
2022-12-12T03:18:57.433Z,97.31
2022-12-12T03:19:56.248Z,97.41
2022-12-12T03:20:56.235Z,97.52
2022-12-12T03:21:56.254Z,97.94
2022-12-12T03:22:56.270Z,97.83
2022-12-12T03:23:56.284Z,97.94
2022-12-12T03:24:56.358Z,98.00
2022-12-12T03:25:56.319Z,97.89
2022-12-12T03:26:56.335Z,97.58
2022-12-12T03:27:56.350Z,97.47
2022-12-12T03:28:56.363Z,97.47
2022-12-12T03:29:56.403Z,97.47
2022-12-12T03:30:56.389Z,97.37
2022-12-12T03:31:56.450Z,97.47
2022-12-12T03:32:56.415Z,97.27
2022-12-12T03:33:56.434Z,96.78
2022-12-12T03:34:56.475Z,96.47
2022-12-12T03:35:56.465Z,96.78
2022-12-12T03:36:56.475Z,97.09
2022-12-12T03:37:56.490Z,97.25
2022-12-12T03:38:56.504Z,97.88
2022-12-12T03:39:56.556Z,98.19
2022-12-12T03:40:56.535Z,98.09
2022-12-12T03:41:56.553Z,98.30
2022-12-12T03:42:56.568Z,98.30
2022-12-12T03:43:56.585Z,98.15
2022-12-12T03:44:56.745Z,98.15
2022-12-12T03:45:56.673Z,98.47
2022-12-12T03:46:56.616Z,98.25
2022-12-12T03:47:56.635Z,98.15
2022-12-12T03:48:56.648Z,98.36
2022-12-12T03:49:56.668Z,97.63
2022-12-12T03:50:56.703Z,97.94
2022-12-12T03:51:56.702Z,97.63
2022-12-12T03:52:56.717Z,97.63
2022-12-12T03:53:56.732Z,97.73
2022-12-12T03:54:56.748Z,97.41
2022-12-12T03:55:56.789Z,96.99
2022-12-12T03:56:56.782Z,97.52
2022-12-12T03:57:56.802Z,97.73
2022-12-12T03:58:56.814Z,97.69
2022-12-12T03:59:56.834Z,97.41
2022-12-12T04:00:56.898Z,97.31
2022-12-12T04:01:56.903Z,97.31
2022-12-12T04:02:56.873Z,97.52
2022-12-12T04:03:56.893Z,97.52
2022-12-12T04:04:56.901Z,96.78
2022-12-12T04:05:56.938Z,96.67
2022-12-12T04:06:56.925Z,96.83
2022-12-12T04:07:56.998Z,97.67
2022-12-12T04:08:56.959Z,98.36
2022-12-12T04:09:56.977Z,98.47
2022-12-12T04:10:57.009Z,98.25
2022-12-12T04:11:57.011Z,97.83
2022-12-12T04:12:57.023Z,97.31
2022-12-12T04:13:57.046Z,97.09
2022-12-12T04:14:57.054Z,96.89
2022-12-12T04:15:57.079Z,96.93
2022-12-12T04:16:57.189Z,97.35
2022-12-12T04:17:57.102Z,97.67
2022-12-12T04:18:57.116Z,98.09
2022-12-12T04:19:57.201Z,98.41
2022-12-12T04:20:57.150Z,98.57
2022-12-12T04:21:57.167Z,97.83
2022-12-12T04:22:57.181Z,97.31
2022-12-12T04:23:57.201Z,97.52
2022-12-12T04:24:57.216Z,97.73
2022-12-12T04:25:57.255Z,97.52
2022-12-12T04:26:57.251Z,97.41
2022-12-12T04:27:57.268Z,97.14
2022-12-12T04:28:57.293Z,97.41
2022-12-12T04:29:57.312Z,97.67
2022-12-12T04:30:57.336Z,97.67
2022-12-12T04:31:57.380Z,97.56
2022-12-12T04:32:57.346Z,97.35
2022-12-12T04:33:57.381Z,97.45
2022-12-12T04:34:57.375Z,97.35
2022-12-12T04:35:57.413Z,97.35
2022-12-12T04:36:57.410Z,97.25
2022-12-12T04:37:57.445Z,97.14
2022-12-12T04:38:57.439Z,97.77
2022-12-12T04:39:57.458Z,97.56
2022-12-12T04:40:57.492Z,97.67
2022-12-12T04:41:57.493Z,97.77
2022-12-12T04:42:57.503Z,97.61
2022-12-12T04:43:57.520Z,97.99
2022-12-12T04:44:57.532Z,97.99
2022-12-12T04:45:57.652Z,97.50
2022-12-12T04:46:57.567Z,97.61
2022-12-12T04:47:57.586Z,97.71
2022-12-12T04:48:57.592Z,97.92
2022-12-12T04:49:57.610Z,97.71
2022-12-12T04:50:57.645Z,97.67
2022-12-12T04:51:57.646Z,97.77
2022-12-12T04:52:57.656Z,97.08
2022-12-12T04:53:57.673Z,97.39
2022-12-12T04:54:57.687Z,97.39
2022-12-12T04:55:57.723Z,97.08
2022-12-12T04:56:57.716Z,96.97
2022-12-12T04:57:57.736Z,97.61
2022-12-12T04:58:57.747Z,97.39
2022-12-12T04:59:57.765Z,97.44
2022-12-12T05:00:57.821Z,97.86
2022-12-12T05:01:57.882Z,97.97
2022-12-12T05:02:57.813Z,98.07
2022-12-12T05:03:57.831Z,97.86
2022-12-12T05:04:57.842Z,97.65
2022-12-12T05:05:57.878Z,97.75
2022-12-12T05:06:57.872Z,98.07
2022-12-12T05:07:57.961Z,98.49
2022-12-12T05:08:57.903Z,98.07
2022-12-12T05:09:57.921Z,97.75
2022-12-12T05:10:57.954Z,97.86
2022-12-12T05:11:57.953Z,98.49
2022-12-12T05:12:57.965Z,99.02
2022-12-12T05:13:57.986Z,98.77
2022-12-12T05:14:57.995Z,98.24
2022-12-12T05:15:58.034Z,97.92
2022-12-12T05:16:58.063Z,97.71
2022-12-12T05:17:58.047Z,97.61
2022-12-12T05:18:58.060Z,97.61
2022-12-12T05:19:58.080Z,97.71
2022-12-12T05:20:58.112Z,97.61
2022-12-12T05:21:58.114Z,97.71
2022-12-12T05:22:58.125Z,97.92
2022-12-12T05:23:58.147Z,98.03
2022-12-12T05:24:58.192Z,97.81
2022-12-12T05:25:58.196Z,97.92
2022-12-12T05:26:58.187Z,98.03
2022-12-12T05:27:58.206Z,97.81
2022-12-12T05:29:03.667Z,97.29
2022-12-12T05:29:58.254Z,97.13
2022-12-12T05:30:58.284Z,97.13
2022-12-12T05:31:58.266Z,97.13
2022-12-12T05:32:58.283Z,97.75
2022-12-12T05:33:58.300Z,98.49
2022-12-12T05:34:58.312Z,98.87
2022-12-12T05:35:58.353Z,98.24
2022-12-12T05:36:58.338Z,97.81
2022-12-12T05:37:58.356Z,97.08
2022-12-12T05:38:58.370Z,96.55
2022-12-12T05:39:58.401Z,96.97
2022-12-12T05:40:58.421Z,96.87
2022-12-12T05:41:58.423Z,97.19
2022-12-12T05:42:58.436Z,96.87
2022-12-12T05:43:58.451Z,97.08
2022-12-12T05:44:58.474Z,97.29
2022-12-12T05:45:58.561Z,96.97
2022-12-12T05:46:58.489Z,96.77
2022-12-12T05:47:58.506Z,96.66
2022-12-12T05:48:58.518Z,96.70
2022-12-12T05:49:58.537Z,97.08
2022-12-12T05:50:58.572Z,96.28
2022-12-12T05:51:58.579Z,96.55
2022-12-12T05:52:58.585Z,96.39
2022-12-12T05:53:58.603Z,96.87
2022-12-12T05:54:58.616Z,96.55
2022-12-12T05:55:58.654Z,96.45
2022-12-12T05:56:58.637Z,96.03
2022-12-12T05:57:58.655Z,95.71
2022-12-12T05:58:58.671Z,95.75
2022-12-12T05:59:58.690Z,95.71
2022-12-12T06:01:03.186Z,95.86
2022-12-12T06:01:58.773Z,95.86
2022-12-12T06:02:58.736Z,95.43
2022-12-12T06:03:58.793Z,95.54
2022-12-12T06:04:58.763Z,95.54
2022-12-12T06:05:58.801Z,95.43
2022-12-12T06:06:58.796Z,96.17
2022-12-12T06:07:58.875Z,96.70
2022-12-12T06:08:58.818Z,96.39
2022-12-12T06:09:58.834Z,96.59
2022-12-12T06:10:58.866Z,97.13
2022-12-12T06:11:58.889Z,96.49
2022-12-12T06:12:58.876Z,95.43
2022-12-12T06:13:58.894Z,95.22
2022-12-12T06:14:58.901Z,95.96
2022-12-12T06:15:58.971Z,95.96
2022-12-12T06:16:58.934Z,95.96
2022-12-12T06:17:58.955Z,96.59
2022-12-12T06:18:58.965Z,96.39
2022-12-12T06:19:58.992Z,96.91
2022-12-12T06:20:59.023Z,96.49
2022-12-12T06:21:59.023Z,96.28
2022-12-12T06:22:59.032Z,96.07
2022-12-12T06:23:59.060Z,95.54
2022-12-12T06:24:59.068Z,96.28
2022-12-12T06:25:59.103Z,96.91
2022-12-12T06:26:59.096Z,96.59
2022-12-12T06:27:59.366Z,96.07
2022-12-12T06:28:59.126Z,95.86
2022-12-12T06:29:59.146Z,95.86
2022-12-12T06:30:59.238Z,96.07
2022-12-12T06:31:59.172Z,95.75
2022-12-12T06:32:59.184Z,95.54
2022-12-12T06:33:59.206Z,96.07
2022-12-12T06:34:59.212Z,95.86
2022-12-12T06:35:59.252Z,96.07
2022-12-12T06:36:59.241Z,96.28
2022-12-12T06:37:59.258Z,95.75
2022-12-12T06:38:59.270Z,95.96
2022-12-12T06:39:59.285Z,95.54
2022-12-12T06:40:59.316Z,95.58
2022-12-12T06:41:59.314Z,95.79
2022-12-12T06:42:59.327Z,95.90
2022-12-12T06:43:59.349Z,96.43
2022-12-12T06:44:59.356Z,96.32
2022-12-12T06:45:59.410Z,95.90
2022-12-12T06:46:59.396Z,95.58
2022-12-12T06:47:59.399Z,96.11
2022-12-12T06:48:59.410Z,96.53
2022-12-12T06:49:59.434Z,95.48
2022-12-12T06:50:59.464Z,95.20
2022-12-12T06:51:59.464Z,95.10
2022-12-12T06:52:59.478Z,95.42
2022-12-12T06:53:59.495Z,95.88
2022-12-12T06:54:59.516Z,96.09
2022-12-12T06:55:59.548Z,96.30
2022-12-12T06:56:59.538Z,96.41
2022-12-12T06:57:59.555Z,97.05
2022-12-12T06:58:59.569Z,97.36
2022-12-12T06:59:59.589Z,97.36
2022-12-12T07:00:59.621Z,96.77
2022-12-12T07:01:59.669Z,96.56
2022-12-12T07:02:59.678Z,96.77
2022-12-12T07:03:59.652Z,96.66
2022-12-12T07:04:59.669Z,96.45
2022-12-12T07:05:59.705Z,96.39
2022-12-12T07:06:59.705Z,96.28
2022-12-12T07:07:59.776Z,96.50
2022-12-12T07:08:59.746Z,97.17
2022-12-12T07:09:59.748Z,97.49
2022-12-12T07:10:59.783Z,97.71
2022-12-12T07:11:59.780Z,97.91
2022-12-12T07:12:59.799Z,98.02
2022-12-12T07:13:59.816Z,98.02
2022-12-12T07:14:59.828Z,98.07
2022-12-12T07:15:59.879Z,98.17
2022-12-12T07:16:59.859Z,98.38
2022-12-12T07:17:59.871Z,98.49
2022-12-12T07:18:59.889Z,98.34
2022-12-12T07:19:59.902Z,98.28
2022-12-12T07:20:59.941Z,98.28
2022-12-12T07:22:05.784Z,98.28
2022-12-12T07:22:59.962Z,98.28
2022-12-12T07:23:59.958Z,98.17
2022-12-12T07:24:59.978Z,98.07
2022-12-12T07:26:00.013Z,98.07
2022-12-12T07:27:00.006Z,98.34
2022-12-12T07:28:00.029Z,98.76
2022-12-12T07:29:00.051Z,98.24
2022-12-12T07:30:00.063Z,97.81
2022-12-12T07:31:00.151Z,98.13
2022-12-12T07:32:00.089Z,98.61
2022-12-12T07:33:00.099Z,98.08
2022-12-12T07:34:00.111Z,96.96
2022-12-12T07:35:00.143Z,96.44
2022-12-12T07:36:00.170Z,96.54
2022-12-12T07:37:03.222Z,97.39
2022-12-12T07:38:00.165Z,97.39
2022-12-12T07:39:00.180Z,97.28
2022-12-12T07:40:00.191Z,97.45
2022-12-12T07:41:00.238Z,97.55
2022-12-12T07:42:00.231Z,97.13
2022-12-12T07:43:00.248Z,96.39
2022-12-12T07:44:00.265Z,96.18
2022-12-12T07:45:00.284Z,96.39
2022-12-12T07:46:00.456Z,97.09
2022-12-12T07:47:00.378Z,96.88
2022-12-12T07:48:00.322Z,96.45
2022-12-12T07:49:00.340Z,96.24
2022-12-12T07:50:00.352Z,95.92
2022-12-12T07:51:00.397Z,95.82
2022-12-12T07:52:00.381Z,96.34
2022-12-12T07:53:00.399Z,96.34
2022-12-12T07:54:00.411Z,96.41
2022-12-12T07:55:00.429Z,95.98
2022-12-12T07:56:00.460Z,95.46
2022-12-12T07:57:00.477Z,95.67
2022-12-12T07:58:00.471Z,95.56
2022-12-12T07:59:00.490Z,95.56
2022-12-12T08:00:00.500Z,95.67
2022-12-12T08:01:00.539Z,95.03
2022-12-12T08:02:00.588Z,95.03
2022-12-12T08:03:00.551Z,95.46
2022-12-12T08:04:00.901Z,95.67
2022-12-12T08:05:00.630Z,95.46
2022-12-12T08:06:00.611Z,95.67
2022-12-12T08:07:05.433Z,95.62
2022-12-12T08:08:00.646Z,95.20
2022-12-12T08:09:00.647Z,95.20
2022-12-12T08:10:00.660Z,95.20
2022-12-12T08:11:00.696Z,95.10
2022-12-12T08:12:00.724Z,95.20
2022-12-12T08:13:00.711Z,95.10
2022-12-12T08:14:00.747Z,94.99
2022-12-12T08:15:00.737Z,94.99
2022-12-12T08:16:00.846Z,94.68
2022-12-12T08:17:00.765Z,94.15
2022-12-12T08:18:00.778Z,93.73
2022-12-12T08:19:00.796Z,93.93
2022-12-12T08:20:00.811Z,94.57
2022-12-12T08:21:00.858Z,94.36
2022-12-12T08:22:00.841Z,94.15
2022-12-12T08:23:00.863Z,94.78
2022-12-12T08:24:00.876Z,94.68
2022-12-12T08:25:00.893Z,94.25
2022-12-12T08:26:00.929Z,94.46
2022-12-12T08:27:00.927Z,94.36
2022-12-12T08:28:00.940Z,94.68
2022-12-12T08:29:00.956Z,94.36
2022-12-12T08:30:00.969Z,94.95
2022-12-12T08:31:01.069Z,95.06
2022-12-12T08:32:01.003Z,94.21
2022-12-12T08:33:04.970Z,93.79
2022-12-12T08:34:01.035Z,93.47
2022-12-12T08:35:01.051Z,93.89
2022-12-12T08:36:01.083Z,93.68
2022-12-12T08:37:01.081Z,94.10
2022-12-12T08:38:01.091Z,94.64
2022-12-12T08:39:01.110Z,93.15
2022-12-12T08:40:01.243Z,93.54
2022-12-12T08:41:01.161Z,93.64
2022-12-12T08:42:01.153Z,94.38
2022-12-12T08:43:01.170Z,93.96
2022-12-12T08:44:01.185Z,94.27
2022-12-12T08:45:01.199Z,93.96
2022-12-12T08:46:01.235Z,93.54
2022-12-12T08:47:01.360Z,93.64
2022-12-12T08:48:01.238Z,93.60
2022-12-12T08:49:01.256Z,93.70
2022-12-12T08:50:01.268Z,93.91
2022-12-12T08:51:01.307Z,93.70
2022-12-12T08:52:01.290Z,93.34
2022-12-12T08:53:01.305Z,92.82
2022-12-12T08:54:01.324Z,93.03
2022-12-12T08:55:01.338Z,92.82
2022-12-12T08:56:01.370Z,92.60
2022-12-12T08:57:01.370Z,92.60
2022-12-12T08:58:01.392Z,93.03
2022-12-12T08:59:01.396Z,92.82
2022-12-12T09:00:01.412Z,93.03
2022-12-12T09:01:01.444Z,92.82
2022-12-12T09:02:01.604Z,92.82
2022-12-12T09:03:01.539Z,93.03
2022-12-12T09:04:01.464Z,92.71
2022-12-12T09:05:01.490Z,92.60
2022-12-12T09:06:01.513Z,92.40
2022-12-12T09:07:08.131Z,91.76
2022-12-12T09:08:01.553Z,91.76
2022-12-12T09:09:01.549Z,92.92
2022-12-12T09:10:01.560Z,93.03
2022-12-12T09:11:01.595Z,92.50
2022-12-12T09:12:01.590Z,92.71
2022-12-12T09:13:01.608Z,92.46
2022-12-12T09:14:01.619Z,92.03
2022-12-12T09:15:01.635Z,91.44
2022-12-12T09:16:01.724Z,91.34
2022-12-12T09:17:01.675Z,92.40
2022-12-12T09:18:01.689Z,92.57
2022-12-12T09:19:01.704Z,92.03
2022-12-12T09:20:01.712Z,92.67
2022-12-12T09:21:01.750Z,91.93
2022-12-12T09:22:01.743Z,92.14
2022-12-12T09:23:01.789Z,92.46
2022-12-12T09:24:01.772Z,91.61
2022-12-12T09:25:01.789Z,91.83
2022-12-12T09:26:01.804Z,91.19
2022-12-12T09:27:01.843Z,91.30
2022-12-12T09:28:01.837Z,91.61
2022-12-12T09:29:01.857Z,92.14
2022-12-12T09:30:01.873Z,92.25
2022-12-12T09:31:01.966Z,91.83
2022-12-12T09:32:01.901Z,91.51
2022-12-12T09:33:01.920Z,91.93
2022-12-12T09:34:01.932Z,92.57
2022-12-12T09:35:01.950Z,93.30
2022-12-12T09:36:01.966Z,92.46
2022-12-12T09:37:01.982Z,92.14
2022-12-12T09:38:01.994Z,91.51
2022-12-12T09:39:02.014Z,91.51
2022-12-12T09:40:02.024Z,93.26
2022-12-12T09:41:02.043Z,92.41
2022-12-12T09:42:02.054Z,92.52
2022-12-12T09:43:02.078Z,92.31
2022-12-12T09:44:02.113Z,91.89
2022-12-12T09:45:02.101Z,91.36
2022-12-12T09:46:02.233Z,91.57
2022-12-12T09:47:02.139Z,91.89
2022-12-12T09:48:02.141Z,91.99
2022-12-12T09:49:02.162Z,93.11
2022-12-12T09:50:02.168Z,93.32
2022-12-12T09:51:02.201Z,93.11
2022-12-12T09:52:02.188Z,93.32
2022-12-12T09:53:02.213Z,91.53
2022-12-12T09:54:02.228Z,89.95
2022-12-12T09:55:02.281Z,90.58
2022-12-12T09:56:02.279Z,91.85
2022-12-12T09:57:02.283Z,92.16
2022-12-12T09:58:02.289Z,93.01
2022-12-12T09:59:02.309Z,91.64
2022-12-12T10:00:02.315Z,90.90
2022-12-12T10:01:02.409Z,91.70
2022-12-12T10:02:02.376Z,92.02
2022-12-12T10:03:02.357Z,92.33
2022-12-12T10:04:02.371Z,92.12
2022-12-12T10:05:02.388Z,91.28
2022-12-12T10:06:35.418Z,91.60
2022-12-12T10:07:02.433Z,91.81
2022-12-12T10:08:02.572Z,91.35
2022-12-12T10:09:02.448Z,91.03
2022-12-12T10:10:02.461Z,90.50
2022-12-12T10:11:02.502Z,91.35
2022-12-12T10:12:07.863Z,91.13
2022-12-12T10:13:02.513Z,89.87
2022-12-12T10:14:02.515Z,90.40
2022-12-12T10:15:02.532Z,90.29
2022-12-12T10:16:02.624Z,90.82
2022-12-12T10:17:02.565Z,90.04
2022-12-12T10:18:02.575Z,89.51
2022-12-12T10:19:02.590Z,89.62
2022-12-12T10:20:02.601Z,89.41
2022-12-12T10:21:02.644Z,88.99
2022-12-12T10:22:02.627Z,89.30
2022-12-12T10:23:02.642Z,91.20
2022-12-12T10:24:02.667Z,90.04
2022-12-12T10:25:02.685Z,88.25
2022-12-12T10:26:02.709Z,88.57
2022-12-12T10:27:02.712Z,90.14
2022-12-12T10:28:02.716Z,89.51
2022-12-12T10:29:02.734Z,90.04
2022-12-12T10:30:02.747Z,89.20
2022-12-12T10:31:02.790Z,89.20
2022-12-12T10:32:02.864Z,89.94
2022-12-12T10:33:02.800Z,88.57
2022-12-12T10:34:02.812Z,89.79
2022-12-12T10:35:03.147Z,88.63
2022-12-12T10:36:02.861Z,87.73
2022-12-12T10:37:02.857Z,87.90
2022-12-12T10:38:02.869Z,88.00
2022-12-12T10:39:02.886Z,87.62
2022-12-12T10:40:02.898Z,86.99
2022-12-12T10:41:02.920Z,88.00
2022-12-12T10:42:02.922Z,88.42
2022-12-12T10:43:02.939Z,88.53
2022-12-12T10:44:02.956Z,88.74
2022-12-12T10:45:02.970Z,88.95
2022-12-12T10:46:03.106Z,88.63
2022-12-12T10:47:03.110Z,86.21
2022-12-12T10:48:03.011Z,86.11
2022-12-12T10:49:03.071Z,86.43
2022-12-12T10:50:03.037Z,88.63
2022-12-12T10:51:03.059Z,88.74
2022-12-12T10:52:03.074Z,86.74
2022-12-12T10:53:03.095Z,87.23
2022-12-12T10:54:03.099Z,86.91
2022-12-12T10:55:03.121Z,86.28
2022-12-12T10:56:03.141Z,85.44
2022-12-12T10:57:03.150Z,85.55
2022-12-12T10:58:03.160Z,85.33
2022-12-12T10:59:03.180Z,87.12
2022-12-12T11:00:03.194Z,87.12
2022-12-12T11:01:03.319Z,86.07
2022-12-12T11:02:11.084Z,84.39
2022-12-12T11:03:03.400Z,85.75
2022-12-12T11:04:03.262Z,86.28
2022-12-12T11:05:03.266Z,85.65
2022-12-12T11:06:03.297Z,86.87
2022-12-12T11:07:03.298Z,86.66
2022-12-12T11:08:03.360Z,87.29
2022-12-12T11:09:03.334Z,84.56
2022-12-12T11:10:03.346Z,83.61
2022-12-12T11:11:03.390Z,84.88
2022-12-12T11:12:03.378Z,85.08
2022-12-12T11:13:03.395Z,84.77
2022-12-12T11:14:03.409Z,85.50
2022-12-12T11:15:03.428Z,85.30
2022-12-12T11:16:03.565Z,85.82
2022-12-12T11:17:03.593Z,87.15
2022-12-12T11:18:06.342Z,84.63
2022-12-12T11:19:03.484Z,85.99
2022-12-12T11:20:03.523Z,83.58
2022-12-12T11:21:03.534Z,85.05
2022-12-12T11:22:03.534Z,84.94
2022-12-12T11:23:03.548Z,83.89
2022-12-12T11:24:03.567Z,83.68
2022-12-12T11:25:03.580Z,84.00
2022-12-12T11:26:03.620Z,84.00
2022-12-12T11:27:03.615Z,83.89
2022-12-12T11:28:06.886Z,84.10
2022-12-12T11:29:05.303Z,84.00
2022-12-12T11:30:03.671Z,83.20
2022-12-12T11:31:03.690Z,83.20
2022-12-12T11:32:04.011Z,83.93
2022-12-12T11:33:03.702Z,84.25
2022-12-12T11:34:03.721Z,84.14
2022-12-12T11:35:03.739Z,85.08
2022-12-12T11:36:03.776Z,85.19
2022-12-12T11:37:03.759Z,84.98
2022-12-12T11:38:03.780Z,84.45
2022-12-12T11:39:03.793Z,84.42
2022-12-12T11:40:03.814Z,84.52
2022-12-12T11:41:03.844Z,84.84
2022-12-12T11:42:03.850Z,84.42
2022-12-12T11:43:03.856Z,83.20
2022-12-12T11:44:03.877Z,84.03
2022-12-12T11:45:03.889Z,84.98
2022-12-12T11:46:03.991Z,84.88
2022-12-12T11:47:03.915Z,85.61
2022-12-12T11:48:03.937Z,86.35
2022-12-12T11:49:03.953Z,86.41
2022-12-12T11:50:10.658Z,84.10
2022-12-12T11:51:04.009Z,82.21
2022-12-12T11:52:04.001Z,82.42
2022-12-12T11:53:04.011Z,84.42
2022-12-12T11:54:04.033Z,84.10
2022-12-12T11:55:04.046Z,84.20
2022-12-12T11:56:04.083Z,82.95
2022-12-12T11:57:04.077Z,84.63
2022-12-12T11:58:04.284Z,84.63
2022-12-12T11:59:04.119Z,83.26
2022-12-12T12:00:04.126Z,81.48
2022-12-12T12:01:04.143Z,81.41
2022-12-12T12:02:04.164Z,81.20
2022-12-12T12:03:04.270Z,81.83
2022-12-12T12:04:04.250Z,83.93
2022-12-12T12:05:04.203Z,84.67
2022-12-12T12:06:04.225Z,83.51
2022-12-12T12:07:04.232Z,83.05
2022-12-12T12:08:04.363Z,84.31
2022-12-12T12:09:04.261Z,83.26
2022-12-12T12:10:04.286Z,83.37
2022-12-12T12:11:04.313Z,83.22
2022-12-12T12:12:04.316Z,79.24
2022-12-12T12:13:04.330Z,79.90
2022-12-12T12:14:04.347Z,81.02
2022-12-12T12:15:04.361Z,83.01
2022-12-12T12:16:04.404Z,80.49
2022-12-12T12:17:04.462Z,79.34
2022-12-12T12:18:04.410Z,82.07
2022-12-12T12:19:04.422Z,83.33
2022-12-12T12:20:04.445Z,79.76
2022-12-12T12:21:04.475Z,80.18
2022-12-12T12:22:04.475Z,80.15
2022-12-12T12:23:04.486Z,80.77
2022-12-12T12:24:04.504Z,81.30
2022-12-12T12:25:04.594Z,80.77
2022-12-12T12:26:04.557Z,79.41
2022-12-12T12:27:04.556Z,80.15
2022-12-12T12:28:04.571Z,79.93
2022-12-12T12:29:04.582Z,80.04
2022-12-12T12:30:04.600Z,80.57
2022-12-12T12:31:04.676Z,83.50
2022-12-12T12:32:04.652Z,82.20
2022-12-12T12:33:04.648Z,79.58
2022-12-12T12:34:04.666Z,78.22
2022-12-12T12:35:04.677Z,79.38
2022-12-12T12:36:04.716Z,79.48
2022-12-12T12:37:04.709Z,80.42
2022-12-12T12:38:04.727Z,81.37
2022-12-12T12:39:04.737Z,82.48
2022-12-12T12:40:04.773Z,82.90
2022-12-12T12:41:04.790Z,81.12
2022-12-12T12:42:04.792Z,80.18
2022-12-12T12:43:04.808Z,78.71
2022-12-12T12:44:04.840Z,79.86
2022-12-12T12:45:04.838Z,81.54
2022-12-12T12:46:04.966Z,79.86
2022-12-12T12:47:04.869Z,81.60
2022-12-12T12:48:10.428Z,79.41
2022-12-12T12:49:04.906Z,79.83
2022-12-12T12:50:04.921Z,79.41
2022-12-12T12:51:04.954Z,78.57
2022-12-12T12:52:04.953Z,79.41
2022-12-12T12:53:04.967Z,77.62